sensor_id;sensor_type;location;lat;lon;timestamp;P1;durP1;ratioP1;P2;durP2;ratioP2
39324;SDS011;25037;49.488;9.900;2022-07-29T00:02:00;6.45;;;2.70;;
39324;SDS011;25037;49.488;9.900;2022-07-29T00:04:26;3.70;;;2.10;;
39324;SDS011;25037;49.488;9.900;2022-07-29T00:06:51;3.42;;;1.85;;
39324;SDS011;25037;49.488;9.900;2022-07-29T00:09:17;4.40;;;2.00;;
39324;SDS011;25037;49.488;9.900;2022-07-29T00:11:43;4.43;;;1.88;;
39324;SDS011;25037;49.488;9.900;2022-07-29T00:14:08;6.03;;;2.05;;
39324;SDS011;25037;49.488;9.900;2022-07-29T00:16:34;4.18;;;2.10;;
39324;SDS011;25037;49.488;9.900;2022-07-29T00:18:59;5.50;;;2.42;;
39324;SDS011;25037;49.488;9.900;2022-07-29T00:21:25;9.18;;;2.05;;
39324;SDS011;25037;49.488;9.900;2022-07-29T00:23:50;6.00;;;1.90;;
39324;SDS011;25037;49.488;9.900;2022-07-29T00:26:16;3.03;;;1.85;;
39324;SDS011;25037;49.488;9.900;2022-07-29T00:28:42;4.53;;;2.70;;
39324;SDS011;25037;49.488;9.900;2022-07-29T00:31:07;4.40;;;2.20;;
39324;SDS011;25037;49.488;9.900;2022-07-29T00:33:33;8.98;;;2.10;;
39324;SDS011;25037;49.488;9.900;2022-07-29T00:35:58;7.65;;;2.33;;
39324;SDS011;25037;49.488;9.900;2022-07-29T00:38:24;5.25;;;2.00;;
39324;SDS011;25037;49.488;9.900;2022-07-29T00:40:49;5.72;;;2.10;;
39324;SDS011;25037;49.488;9.900;2022-07-29T00:43:16;7.68;;;2.25;;
39324;SDS011;25037;49.488;9.900;2022-07-29T00:45:42;4.45;;;2.28;;
39324;SDS011;25037;49.488;9.900;2022-07-29T00:48:08;5.63;;;1.83;;
39324;SDS011;25037;49.488;9.900;2022-07-29T00:50:34;3.60;;;2.10;;
39324;SDS011;25037;49.488;9.900;2022-07-29T00:53:00;4.32;;;2.35;;
39324;SDS011;25037;49.488;9.900;2022-07-29T00:55:27;4.32;;;2.47;;
39324;SDS011;25037;49.488;9.900;2022-07-29T00:57:53;3.88;;;2.08;;
39324;SDS011;25037;49.488;9.900;2022-07-29T01:00:22;4.05;;;2.20;;
39324;SDS011;25037;49.488;9.900;2022-07-29T01:02:49;3.17;;;1.83;;
39324;SDS011;25037;49.488;9.900;2022-07-29T01:05:16;4.03;;;2.13;;
39324;SDS011;25037;49.488;9.900;2022-07-29T01:07:44;3.97;;;1.73;;
39324;SDS011;25037;49.488;9.900;2022-07-29T01:10:11;4.35;;;1.67;;
39324;SDS011;25037;49.488;9.900;2022-07-29T01:12:38;5.60;;;1.77;;
39324;SDS011;25037;49.488;9.900;2022-07-29T01:15:06;3.47;;;1.98;;
39324;SDS011;25037;49.488;9.900;2022-07-29T01:17:36;4.07;;;1.95;;
39324;SDS011;25037;49.488;9.900;2022-07-29T01:20:18;4.80;;;1.90;;
39324;SDS011;25037;49.488;9.900;2022-07-29T01:28:37;4.57;;;2.28;;
39324;SDS011;25037;49.488;9.900;2022-07-29T01:31:19;4.13;;;2.08;;
39324;SDS011;25037;49.488;9.900;2022-07-29T01:33:50;6.10;;;1.83;;
39324;SDS011;25037;49.488;9.900;2022-07-29T01:36:23;3.70;;;2.00;;
39324;SDS011;25037;49.488;9.900;2022-07-29T01:38:58;3.35;;;2.10;;
39324;SDS011;25037;49.488;9.900;2022-07-29T01:41:49;5.38;;;2.10;;
39324;SDS011;25037;49.488;9.900;2022-07-29T01:44:30;3.75;;;2.40;;
39324;SDS011;25037;49.488;9.900;2022-07-29T01:47:00;4.18;;;2.10;;
39324;SDS011;25037;49.488;9.900;2022-07-29T01:49:31;6.25;;;2.17;;
39324;SDS011;25037;49.488;9.900;2022-07-29T01:52:02;5.22;;;2.00;;
39324;SDS011;25037;49.488;9.900;2022-07-29T01:54:40;4.10;;;1.97;;
39324;SDS011;25037;49.488;9.900;2022-07-29T01:57:09;5.88;;;2.00;;
39324;SDS011;25037;49.488;9.900;2022-07-29T01:59:37;4.55;;;2.22;;
39324;SDS011;25037;49.488;9.900;2022-07-29T02:02:04;4.05;;;2.08;;
39324;SDS011;25037;49.488;9.900;2022-07-29T02:04:33;5.55;;;2.05;;
39324;SDS011;25037;49.488;9.900;2022-07-29T02:07:02;3.92;;;2.15;;
39324;SDS011;25037;49.488;9.900;2022-07-29T02:09:31;5.53;;;2.10;;
39324;SDS011;25037;49.488;9.900;2022-07-29T02:12:00;3.55;;;2.25;;
39324;SDS011;25037;49.488;9.900;2022-07-29T02:14:28;4.43;;;2.10;;
39324;SDS011;25037;49.488;9.900;2022-07-29T02:16:58;4.05;;;2.05;;
39324;SDS011;25037;49.488;9.900;2022-07-29T02:19:26;4.35;;;2.03;;
39324;SDS011;25037;49.488;9.900;2022-07-29T02:21:54;3.90;;;2.15;;
39324;SDS011;25037;49.488;9.900;2022-07-29T02:24:22;3.95;;;2.00;;
39324;SDS011;25037;49.488;9.900;2022-07-29T02:26:49;5.40;;;1.80;;
39324;SDS011;25037;49.488;9.900;2022-07-29T02:29:16;4.40;;;1.98;;
39324;SDS011;25037;49.488;9.900;2022-07-29T02:31:46;4.15;;;2.08;;
39324;SDS011;25037;49.488;9.900;2022-07-29T02:34:13;4.30;;;2.30;;
39324;SDS011;25037;49.488;9.900;2022-07-29T02:36:40;5.13;;;2.22;;
39324;SDS011;25037;49.488;9.900;2022-07-29T02:39:08;3.53;;;2.20;;
39324;SDS011;25037;49.488;9.900;2022-07-29T02:41:41;3.88;;;2.00;;
39324;SDS011;25037;49.488;9.900;2022-07-29T02:44:13;4.43;;;1.90;;
39324;SDS011;25037;49.488;9.900;2022-07-29T02:46:46;5.32;;;2.35;;
39324;SDS011;25037;49.488;9.900;2022-07-29T02:49:22;4.13;;;1.85;;
39324;SDS011;25037;49.488;9.900;2022-07-29T02:51:58;5.70;;;2.45;;
39324;SDS011;25037;49.488;9.900;2022-07-29T02:54:38;4.60;;;2.20;;
39324;SDS011;25037;49.488;9.900;2022-07-29T03:00:26;3.80;;;2.10;;
39324;SDS011;25037;49.488;9.900;2022-07-29T03:02:53;3.35;;;1.70;;
39324;SDS011;25037;49.488;9.900;2022-07-29T03:05:21;4.25;;;2.10;;
39324;SDS011;25037;49.488;9.900;2022-07-29T03:08:04;4.05;;;2.00;;
39324;SDS011;25037;49.488;9.900;2022-07-29T03:10:31;6.40;;;2.30;;
39324;SDS011;25037;49.488;9.900;2022-07-29T03:12:58;3.97;;;2.30;;
39324;SDS011;25037;49.488;9.900;2022-07-29T03:15:24;9.15;;;2.17;;
39324;SDS011;25037;49.488;9.900;2022-07-29T03:17:51;5.97;;;2.20;;
39324;SDS011;25037;49.488;9.900;2022-07-29T03:20:17;3.70;;;1.90;;
39324;SDS011;25037;49.488;9.900;2022-07-29T03:22:44;3.58;;;2.15;;
39324;SDS011;25037;49.488;9.900;2022-07-29T03:25:12;4.13;;;2.33;;
39324;SDS011;25037;49.488;9.900;2022-07-29T03:27:39;5.78;;;2.88;;
39324;SDS011;25037;49.488;9.900;2022-07-29T03:30:05;6.63;;;2.53;;
39324;SDS011;25037;49.488;9.900;2022-07-29T03:32:31;3.08;;;2.08;;
39324;SDS011;25037;49.488;9.900;2022-07-29T03:34:57;5.28;;;2.33;;
39324;SDS011;25037;49.488;9.900;2022-07-29T03:37:23;3.88;;;2.72;;
39324;SDS011;25037;49.488;9.900;2022-07-29T03:39:48;5.60;;;2.28;;
39324;SDS011;25037;49.488;9.900;2022-07-29T03:42:15;4.22;;;2.50;;
39324;SDS011;25037;49.488;9.900;2022-07-29T03:44:44;3.60;;;2.00;;
39324;SDS011;25037;49.488;9.900;2022-07-29T03:47:12;4.47;;;2.53;;
39324;SDS011;25037;49.488;9.900;2022-07-29T03:49:40;5.93;;;2.40;;
39324;SDS011;25037;49.488;9.900;2022-07-29T03:52:06;4.90;;;2.30;;
39324;SDS011;25037;49.488;9.900;2022-07-29T03:54:33;4.20;;;2.50;;
39324;SDS011;25037;49.488;9.900;2022-07-29T03:56:59;5.03;;;2.60;;
39324;SDS011;25037;49.488;9.900;2022-07-29T03:59:26;3.80;;;2.50;;
39324;SDS011;25037;49.488;9.900;2022-07-29T04:01:52;4.95;;;2.30;;
39324;SDS011;25037;49.488;9.900;2022-07-29T04:04:20;3.95;;;2.50;;
39324;SDS011;25037;49.488;9.900;2022-07-29T04:06:46;4.57;;;2.05;;
39324;SDS011;25037;49.488;9.900;2022-07-29T04:09:12;4.60;;;2.35;;
39324;SDS011;25037;49.488;9.900;2022-07-29T04:11:38;4.63;;;2.45;;
39324;SDS011;25037;49.488;9.900;2022-07-29T04:14:05;4.40;;;2.25;;
39324;SDS011;25037;49.488;9.900;2022-07-29T04:16:31;4.38;;;2.40;;
39324;SDS011;25037;49.488;9.900;2022-07-29T04:18:57;4.65;;;2.55;;
39324;SDS011;25037;49.488;9.900;2022-07-29T04:21:23;3.85;;;2.45;;
39324;SDS011;25037;49.488;9.900;2022-07-29T04:23:48;5.57;;;2.58;;
39324;SDS011;25037;49.488;9.900;2022-07-29T04:26:15;5.60;;;2.40;;
39324;SDS011;25037;49.488;9.900;2022-07-29T04:28:41;4.45;;;2.17;;
39324;SDS011;25037;49.488;9.900;2022-07-29T04:31:07;5.60;;;2.60;;
39324;SDS011;25037;49.488;9.900;2022-07-29T04:33:33;5.20;;;2.60;;
39324;SDS011;25037;49.488;9.900;2022-07-29T04:35:59;9.80;;;3.53;;
39324;SDS011;25037;49.488;9.900;2022-07-29T04:38:24;4.38;;;2.30;;
39324;SDS011;25037;49.488;9.900;2022-07-29T04:40:50;4.25;;;2.38;;
39324;SDS011;25037;49.488;9.900;2022-07-29T04:43:15;4.65;;;2.10;;
39324;SDS011;25037;49.488;9.900;2022-07-29T04:45:41;5.78;;;2.17;;
39324;SDS011;25037;49.488;9.900;2022-07-29T04:48:06;4.32;;;2.53;;
39324;SDS011;25037;49.488;9.900;2022-07-29T04:50:32;5.15;;;2.53;;
39324;SDS011;25037;49.488;9.900;2022-07-29T04:52:58;4.32;;;2.50;;
39324;SDS011;25037;49.488;9.900;2022-07-29T04:55:23;4.13;;;2.33;;
39324;SDS011;25037;49.488;9.900;2022-07-29T04:57:49;5.57;;;2.55;;
39324;SDS011;25037;49.488;9.900;2022-07-29T05:00:15;5.45;;;2.40;;
39324;SDS011;25037;49.488;9.900;2022-07-29T05:02:40;7.10;;;2.58;;
39324;SDS011;25037;49.488;9.900;2022-07-29T05:05:06;5.28;;;2.25;;
39324;SDS011;25037;49.488;9.900;2022-07-29T05:07:32;5.70;;;2.20;;
39324;SDS011;25037;49.488;9.900;2022-07-29T05:09:58;5.05;;;2.75;;
39324;SDS011;25037;49.488;9.900;2022-07-29T05:12:24;5.80;;;2.80;;
39324;SDS011;25037;49.488;9.900;2022-07-29T05:14:50;5.05;;;2.97;;
39324;SDS011;25037;49.488;9.900;2022-07-29T05:17:15;5.47;;;2.67;;
39324;SDS011;25037;49.488;9.900;2022-07-29T05:19:41;7.80;;;2.65;;
39324;SDS011;25037;49.488;9.900;2022-07-29T05:22:07;5.18;;;2.88;;
39324;SDS011;25037;49.488;9.900;2022-07-29T05:24:32;4.80;;;2.67;;
39324;SDS011;25037;49.488;9.900;2022-07-29T05:26:58;5.05;;;2.38;;
39324;SDS011;25037;49.488;9.900;2022-07-29T05:29:23;6.18;;;3.10;;
39324;SDS011;25037;49.488;9.900;2022-07-29T05:31:49;3.70;;;2.72;;
39324;SDS011;25037;49.488;9.900;2022-07-29T05:34:16;6.47;;;2.40;;
39324;SDS011;25037;49.488;9.900;2022-07-29T05:36:41;4.82;;;2.45;;
39324;SDS011;25037;49.488;9.900;2022-07-29T05:39:07;5.38;;;2.40;;
39324;SDS011;25037;49.488;9.900;2022-07-29T05:41:32;4.43;;;2.85;;
39324;SDS011;25037;49.488;9.900;2022-07-29T05:43:58;4.90;;;2.50;;
39324;SDS011;25037;49.488;9.900;2022-07-29T05:46:24;6.32;;;2.92;;
39324;SDS011;25037;49.488;9.900;2022-07-29T05:48:49;4.90;;;2.50;;
39324;SDS011;25037;49.488;9.900;2022-07-29T05:51:15;6.30;;;2.78;;
39324;SDS011;25037;49.488;9.900;2022-07-29T05:53:40;4.57;;;2.55;;
39324;SDS011;25037;49.488;9.900;2022-07-29T05:56:06;4.28;;;2.35;;
39324;SDS011;25037;49.488;9.900;2022-07-29T05:58:32;4.57;;;2.40;;
39324;SDS011;25037;49.488;9.900;2022-07-29T06:00:58;5.45;;;2.72;;
39324;SDS011;25037;49.488;9.900;2022-07-29T06:03:26;3.92;;;2.53;;
39324;SDS011;25037;49.488;9.900;2022-07-29T06:05:52;5.97;;;2.75;;
39324;SDS011;25037;49.488;9.900;2022-07-29T06:08:18;4.88;;;2.60;;
39324;SDS011;25037;49.488;9.900;2022-07-29T06:10:43;4.85;;;2.58;;
39324;SDS011;25037;49.488;9.900;2022-07-29T06:13:10;6.70;;;2.90;;
39324;SDS011;25037;49.488;9.900;2022-07-29T06:15:36;5.03;;;2.53;;
39324;SDS011;25037;49.488;9.900;2022-07-29T06:18:02;3.92;;;2.63;;
39324;SDS011;25037;49.488;9.900;2022-07-29T06:20:28;4.60;;;2.00;;
39324;SDS011;25037;49.488;9.900;2022-07-29T06:22:55;4.70;;;2.30;;
39324;SDS011;25037;49.488;9.900;2022-07-29T06:25:20;4.88;;;2.50;;
39324;SDS011;25037;49.488;9.900;2022-07-29T06:27:46;3.85;;;2.80;;
39324;SDS011;25037;49.488;9.900;2022-07-29T06:30:12;5.30;;;2.25;;
39324;SDS011;25037;49.488;9.900;2022-07-29T06:32:37;6.65;;;2.70;;
39324;SDS011;25037;49.488;9.900;2022-07-29T06:35:03;5.05;;;2.78;;
39324;SDS011;25037;49.488;9.900;2022-07-29T06:37:29;6.00;;;3.00;;
39324;SDS011;25037;49.488;9.900;2022-07-29T06:39:55;5.22;;;1.90;;
39324;SDS011;25037;49.488;9.900;2022-07-29T06:42:43;5.88;;;3.05;;
39324;SDS011;25037;49.488;9.900;2022-07-29T06:45:09;5.03;;;2.30;;
39324;SDS011;25037;49.488;9.900;2022-07-29T06:47:35;5.40;;;2.42;;
39324;SDS011;25037;49.488;9.900;2022-07-29T06:50:01;5.90;;;2.63;;
39324;SDS011;25037;49.488;9.900;2022-07-29T06:52:27;7.05;;;2.78;;
39324;SDS011;25037;49.488;9.900;2022-07-29T06:54:53;5.22;;;2.75;;
39324;SDS011;25037;49.488;9.900;2022-07-29T06:57:19;5.47;;;2.22;;
39324;SDS011;25037;49.488;9.900;2022-07-29T06:59:45;4.35;;;2.13;;
39324;SDS011;25037;49.488;9.900;2022-07-29T07:02:11;7.43;;;3.22;;
39324;SDS011;25037;49.488;9.900;2022-07-29T07:04:36;6.28;;;3.22;;
39324;SDS011;25037;49.488;9.900;2022-07-29T07:07:02;4.50;;;2.63;;
39324;SDS011;25037;49.488;9.900;2022-07-29T07:09:28;6.38;;;2.78;;
39324;SDS011;25037;49.488;9.900;2022-07-29T07:11:53;4.50;;;2.50;;
39324;SDS011;25037;49.488;9.900;2022-07-29T07:14:19;3.63;;;2.85;;
39324;SDS011;25037;49.488;9.900;2022-07-29T07:16:44;5.28;;;2.33;;
39324;SDS011;25037;49.488;9.900;2022-07-29T07:19:10;3.90;;;2.63;;
39324;SDS011;25037;49.488;9.900;2022-07-29T07:21:35;5.32;;;3.00;;
39324;SDS011;25037;49.488;9.900;2022-07-29T07:24:01;5.60;;;2.30;;
39324;SDS011;25037;49.488;9.900;2022-07-29T07:26:26;6.20;;;2.67;;
39324;SDS011;25037;49.488;9.900;2022-07-29T07:28:52;5.78;;;2.35;;
39324;SDS011;25037;49.488;9.900;2022-07-29T07:31:18;3.90;;;2.72;;
39324;SDS011;25037;49.488;9.900;2022-07-29T07:33:44;7.25;;;2.83;;
39324;SDS011;25037;49.488;9.900;2022-07-29T07:36:09;4.80;;;2.42;;
39324;SDS011;25037;49.488;9.900;2022-07-29T07:38:35;5.38;;;2.70;;
39324;SDS011;25037;49.488;9.900;2022-07-29T07:41:00;7.13;;;2.53;;
39324;SDS011;25037;49.488;9.900;2022-07-29T07:43:26;5.20;;;2.75;;
39324;SDS011;25037;49.488;9.900;2022-07-29T07:45:52;4.00;;;2.60;;
39324;SDS011;25037;49.488;9.900;2022-07-29T07:48:18;4.60;;;2.50;;
39324;SDS011;25037;49.488;9.900;2022-07-29T07:50:43;4.95;;;2.50;;
39324;SDS011;25037;49.488;9.900;2022-07-29T07:53:09;4.60;;;2.40;;
39324;SDS011;25037;49.488;9.900;2022-07-29T07:55:39;6.50;;;2.58;;
39324;SDS011;25037;49.488;9.900;2022-07-29T07:58:05;3.67;;;2.60;;
39324;SDS011;25037;49.488;9.900;2022-07-29T08:00:31;6.78;;;2.67;;
39324;SDS011;25037;49.488;9.900;2022-07-29T08:02:57;4.45;;;2.38;;
39324;SDS011;25037;49.488;9.900;2022-07-29T08:05:23;4.25;;;2.33;;
39324;SDS011;25037;49.488;9.900;2022-07-29T08:07:49;7.90;;;2.60;;
39324;SDS011;25037;49.488;9.900;2022-07-29T08:10:15;5.95;;;2.45;;
39324;SDS011;25037;49.488;9.900;2022-07-29T08:13:03;7.80;;;2.58;;
39324;SDS011;25037;49.488;9.900;2022-07-29T08:15:29;6.05;;;2.15;;
39324;SDS011;25037;49.488;9.900;2022-07-29T08:17:55;4.03;;;2.35;;
39324;SDS011;25037;49.488;9.900;2022-07-29T08:20:20;3.60;;;2.20;;
39324;SDS011;25037;49.488;9.900;2022-07-29T08:22:46;6.25;;;2.60;;
39324;SDS011;25037;49.488;9.900;2022-07-29T08:25:11;5.22;;;2.53;;
39324;SDS011;25037;49.488;9.900;2022-07-29T08:27:37;5.00;;;2.97;;
39324;SDS011;25037;49.488;9.900;2022-07-29T08:30:02;3.85;;;2.03;;
39324;SDS011;25037;49.488;9.900;2022-07-29T08:32:28;5.55;;;2.45;;
39324;SDS011;25037;49.488;9.900;2022-07-29T08:34:54;4.80;;;2.85;;
39324;SDS011;25037;49.488;9.900;2022-07-29T08:37:19;5.78;;;2.40;;
39324;SDS011;25037;49.488;9.900;2022-07-29T08:39:45;5.10;;;2.17;;
39324;SDS011;25037;49.488;9.900;2022-07-29T08:42:11;3.50;;;2.35;;
39324;SDS011;25037;49.488;9.900;2022-07-29T08:44:36;3.38;;;2.20;;
39324;SDS011;25037;49.488;9.900;2022-07-29T08:47:03;4.50;;;2.25;;
39324;SDS011;25037;49.488;9.900;2022-07-29T08:49:29;5.70;;;2.40;;
39324;SDS011;25037;49.488;9.900;2022-07-29T08:51:55;7.18;;;2.30;;
39324;SDS011;25037;49.488;9.900;2022-07-29T08:54:22;4.88;;;2.40;;
39324;SDS011;25037;49.488;9.900;2022-07-29T08:56:49;5.07;;;2.45;;
39324;SDS011;25037;49.488;9.900;2022-07-29T08:59:15;4.57;;;2.95;;
39324;SDS011;25037;49.488;9.900;2022-07-29T09:01:46;5.15;;;2.53;;
39324;SDS011;25037;49.488;9.900;2022-07-29T09:04:13;5.88;;;2.38;;
39324;SDS011;25037;49.488;9.900;2022-07-29T09:06:44;5.90;;;2.30;;
39324;SDS011;25037;49.488;9.900;2022-07-29T09:09:12;5.13;;;3.17;;
39324;SDS011;25037;49.488;9.900;2022-07-29T09:11:39;3.80;;;2.00;;
39324;SDS011;25037;49.488;9.900;2022-07-29T09:14:05;5.78;;;3.03;;
39324;SDS011;25037;49.488;9.900;2022-07-29T09:16:53;4.72;;;2.17;;
39324;SDS011;25037;49.488;9.900;2022-07-29T09:19:27;4.20;;;2.67;;
39324;SDS011;25037;49.488;9.900;2022-07-29T09:21:59;4.53;;;2.28;;
39324;SDS011;25037;49.488;9.900;2022-07-29T09:24:27;3.20;;;2.17;;
39324;SDS011;25037;49.488;9.900;2022-07-29T09:26:59;5.70;;;2.30;;
39324;SDS011;25037;49.488;9.900;2022-07-29T09:29:25;4.32;;;2.15;;
39324;SDS011;25037;49.488;9.900;2022-07-29T09:31:52;4.90;;;2.33;;
39324;SDS011;25037;49.488;9.900;2022-07-29T09:34:28;3.22;;;2.30;;
39324;SDS011;25037;49.488;9.900;2022-07-29T09:36:56;4.22;;;1.98;;
39324;SDS011;25037;49.488;9.900;2022-07-29T09:42:02;4.60;;;1.98;;
39324;SDS011;25037;49.488;9.900;2022-07-29T09:44:41;3.78;;;2.08;;
39324;SDS011;25037;49.488;9.900;2022-07-29T09:47:14;3.22;;;2.13;;
39324;SDS011;25037;49.488;9.900;2022-07-29T09:49:54;3.25;;;2.30;;
39324;SDS011;25037;49.488;9.900;2022-07-29T09:52:24;3.45;;;2.10;;
39324;SDS011;25037;49.488;9.900;2022-07-29T09:54:51;3.25;;;2.00;;
39324;SDS011;25037;49.488;9.900;2022-07-29T09:57:23;5.60;;;2.40;;
39324;SDS011;25037;49.488;9.900;2022-07-29T09:59:59;5.78;;;2.10;;
39324;SDS011;25037;49.488;9.900;2022-07-29T10:02:30;5.13;;;1.90;;
39324;SDS011;25037;49.488;9.900;2022-07-29T10:04:57;4.38;;;2.42;;
39324;SDS011;25037;49.488;9.900;2022-07-29T10:07:22;4.97;;;2.60;;
39324;SDS011;25037;49.488;9.900;2022-07-29T10:09:49;4.97;;;2.20;;
39324;SDS011;25037;49.488;9.900;2022-07-29T10:12:19;4.03;;;2.45;;
39324;SDS011;25037;49.488;9.900;2022-07-29T10:14:44;4.07;;;2.33;;
39324;SDS011;25037;49.488;9.900;2022-07-29T10:17:11;2.67;;;2.05;;
39324;SDS011;25037;49.488;9.900;2022-07-29T10:19:37;3.95;;;2.45;;
39324;SDS011;25037;49.488;9.900;2022-07-29T10:22:07;5.65;;;2.22;;
39324;SDS011;25037;49.488;9.900;2022-07-29T10:24:33;4.32;;;2.25;;
39324;SDS011;25037;49.488;9.900;2022-07-29T10:27:01;3.90;;;2.20;;
39324;SDS011;25037;49.488;9.900;2022-07-29T10:29:28;4.03;;;2.50;;
39324;SDS011;25037;49.488;9.900;2022-07-29T10:32:04;3.83;;;2.33;;
39324;SDS011;25037;49.488;9.900;2022-07-29T10:37:25;4.38;;;2.22;;
39324;SDS011;25037;49.488;9.900;2022-07-29T10:40:07;4.25;;;2.53;;
39324;SDS011;25037;49.488;9.900;2022-07-29T10:43:35;3.72;;;2.10;;
39324;SDS011;25037;49.488;9.900;2022-07-29T10:46:03;3.28;;;2.03;;
39324;SDS011;25037;49.488;9.900;2022-07-29T10:48:29;4.10;;;1.90;;
39324;SDS011;25037;49.488;9.900;2022-07-29T10:50:56;3.47;;;2.30;;
39324;SDS011;25037;49.488;9.900;2022-07-29T10:53:45;3.15;;;2.10;;
39324;SDS011;25037;49.488;9.900;2022-07-29T10:56:28;4.35;;;2.60;;
39324;SDS011;25037;49.488;9.900;2022-07-29T11:01:44;4.72;;;2.20;;
39324;SDS011;25037;49.488;9.900;2022-07-29T11:04:10;4.53;;;2.00;;
39324;SDS011;25037;49.488;9.900;2022-07-29T11:09:41;5.03;;;2.03;;
39324;SDS011;25037;49.488;9.900;2022-07-29T11:15:00;6.53;;;2.45;;
39324;SDS011;25037;49.488;9.900;2022-07-29T11:17:27;5.53;;;2.22;;
39324;SDS011;25037;49.488;9.900;2022-07-29T11:22:56;2.80;;;2.10;;
39324;SDS011;25037;49.488;9.900;2022-07-29T11:25:22;3.83;;;1.95;;
39324;SDS011;25037;49.488;9.900;2022-07-29T11:27:48;3.95;;;2.03;;
39324;SDS011;25037;49.488;9.900;2022-07-29T11:30:14;4.88;;;2.30;;
39324;SDS011;25037;49.488;9.900;2022-07-29T11:32:40;3.40;;;2.13;;
39324;SDS011;25037;49.488;9.900;2022-07-29T11:35:11;3.67;;;2.05;;
39324;SDS011;25037;49.488;9.900;2022-07-29T11:37:40;4.30;;;2.00;;
39324;SDS011;25037;49.488;9.900;2022-07-29T11:47:39;2.67;;;2.10;;
39324;SDS011;25037;49.488;9.900;2022-07-29T11:50:12;5.00;;;2.00;;
39324;SDS011;25037;49.488;9.900;2022-07-29T11:52:58;3.85;;;2.15;;
39324;SDS011;25037;49.488;9.900;2022-07-29T11:55:25;3.85;;;2.53;;
39324;SDS011;25037;49.488;9.900;2022-07-29T12:00:22;3.10;;;1.95;;
39324;SDS011;25037;49.488;9.900;2022-07-29T12:02:50;3.65;;;2.00;;
39324;SDS011;25037;49.488;9.900;2022-07-29T12:05:16;4.75;;;1.90;;
39324;SDS011;25037;49.488;9.900;2022-07-29T12:07:42;7.80;;;2.70;;
39324;SDS011;25037;49.488;9.900;2022-07-29T12:10:08;4.72;;;2.33;;
39324;SDS011;25037;49.488;9.900;2022-07-29T12:12:34;3.38;;;2.33;;
39324;SDS011;25037;49.488;9.900;2022-07-29T12:17:40;4.03;;;1.80;;
39324;SDS011;25037;49.488;9.900;2022-07-29T12:20:05;3.67;;;1.85;;
39324;SDS011;25037;49.488;9.900;2022-07-29T12:22:32;2.80;;;1.70;;
39324;SDS011;25037;49.488;9.900;2022-07-29T12:25:03;4.07;;;1.90;;
39324;SDS011;25037;49.488;9.900;2022-07-29T12:27:30;2.30;;;1.60;;
39324;SDS011;25037;49.488;9.900;2022-07-29T12:30:01;2.72;;;1.70;;
39324;SDS011;25037;49.488;9.900;2022-07-29T12:32:31;4.30;;;2.35;;
39324;SDS011;25037;49.488;9.900;2022-07-29T12:35:09;3.70;;;1.83;;
39324;SDS011;25037;49.488;9.900;2022-07-29T12:37:44;3.28;;;2.28;;
39324;SDS011;25037;49.488;9.900;2022-07-29T12:40:13;3.08;;;2.25;;
39324;SDS011;25037;49.488;9.900;2022-07-29T12:42:41;4.07;;;2.25;;
39324;SDS011;25037;49.488;9.900;2022-07-29T12:45:41;3.05;;;2.17;;
39324;SDS011;25037;49.488;9.900;2022-07-29T12:48:12;12.20;;;2.40;;
39324;SDS011;25037;49.488;9.900;2022-07-29T12:50:57;4.72;;;1.98;;
39324;SDS011;25037;49.488;9.900;2022-07-29T12:53:25;4.63;;;2.67;;
39324;SDS011;25037;49.488;9.900;2022-07-29T12:55:51;4.93;;;2.70;;
39324;SDS011;25037;49.488;9.900;2022-07-29T13:01:10;3.58;;;2.28;;
39324;SDS011;25037;49.488;9.900;2022-07-29T13:03:53;4.65;;;2.20;;
39324;SDS011;25037;49.488;9.900;2022-07-29T13:06:38;5.05;;;2.65;;
39324;SDS011;25037;49.488;9.900;2022-07-29T13:11:41;4.70;;;2.60;;
39324;SDS011;25037;49.488;9.900;2022-07-29T13:14:09;7.45;;;2.92;;
39324;SDS011;25037;49.488;9.900;2022-07-29T13:19:40;3.83;;;2.70;;
39324;SDS011;25037;49.488;9.900;2022-07-29T13:22:11;6.18;;;2.83;;
39324;SDS011;25037;49.488;9.900;2022-07-29T13:24:47;6.82;;;2.78;;
39324;SDS011;25037;49.488;9.900;2022-07-29T13:27:24;11.60;;;2.72;;
39324;SDS011;25037;49.488;9.900;2022-07-29T13:29:51;8.05;;;2.90;;
39324;SDS011;25037;49.488;9.900;2022-07-29T13:32:18;7.05;;;2.90;;
39324;SDS011;25037;49.488;9.900;2022-07-29T13:34:44;10.27;;;3.47;;
39324;SDS011;25037;49.488;9.900;2022-07-29T13:37:10;7.22;;;2.90;;
39324;SDS011;25037;49.488;9.900;2022-07-29T13:39:36;5.00;;;3.40;;
39324;SDS011;25037;49.488;9.900;2022-07-29T13:42:02;12.05;;;3.30;;
39324;SDS011;25037;49.488;9.900;2022-07-29T13:44:28;7.75;;;2.70;;
39324;SDS011;25037;49.488;9.900;2022-07-29T13:46:54;5.95;;;3.28;;
39324;SDS011;25037;49.488;9.900;2022-07-29T13:49:20;7.70;;;3.42;;
39324;SDS011;25037;49.488;9.900;2022-07-29T13:51:46;6.07;;;3.38;;
39324;SDS011;25037;49.488;9.900;2022-07-29T13:54:11;4.82;;;3.33;;
39324;SDS011;25037;49.488;9.900;2022-07-29T13:56:37;6.00;;;3.15;;
39324;SDS011;25037;49.488;9.900;2022-07-29T13:59:02;6.88;;;3.90;;
39324;SDS011;25037;49.488;9.900;2022-07-29T14:01:28;8.38;;;3.72;;
39324;SDS011;25037;49.488;9.900;2022-07-29T14:03:55;7.32;;;3.63;;
39324;SDS011;25037;49.488;9.900;2022-07-29T14:06:20;7.35;;;3.75;;
39324;SDS011;25037;49.488;9.900;2022-07-29T14:08:46;6.43;;;3.55;;
39324;SDS011;25037;49.488;9.900;2022-07-29T14:11:11;5.85;;;3.78;;
39324;SDS011;25037;49.488;9.900;2022-07-29T14:13:37;5.38;;;3.50;;
39324;SDS011;25037;49.488;9.900;2022-07-29T14:16:02;6.20;;;3.65;;
39324;SDS011;25037;49.488;9.900;2022-07-29T14:18:28;8.52;;;3.75;;
39324;SDS011;25037;49.488;9.900;2022-07-29T14:20:53;5.93;;;2.92;;
39324;SDS011;25037;49.488;9.900;2022-07-29T14:23:19;8.25;;;3.85;;
39324;SDS011;25037;49.488;9.900;2022-07-29T14:25:44;4.72;;;2.85;;
39324;SDS011;25037;49.488;9.900;2022-07-29T14:28:10;5.22;;;3.25;;
39324;SDS011;25037;49.488;9.900;2022-07-29T14:30:36;9.45;;;3.53;;
39324;SDS011;25037;49.488;9.900;2022-07-29T14:33:02;5.57;;;3.42;;
39324;SDS011;25037;49.488;9.900;2022-07-29T14:35:28;7.13;;;3.45;;
39324;SDS011;25037;49.488;9.900;2022-07-29T14:37:53;6.03;;;3.30;;
39324;SDS011;25037;49.488;9.900;2022-07-29T14:40:19;6.07;;;3.65;;
39324;SDS011;25037;49.488;9.900;2022-07-29T14:42:44;10.32;;;4.32;;
39324;SDS011;25037;49.488;9.900;2022-07-29T14:45:10;19.08;;;6.57;;
39324;SDS011;25037;49.488;9.900;2022-07-29T14:47:36;9.80;;;5.00;;
39324;SDS011;25037;49.488;9.900;2022-07-29T14:50:02;9.48;;;3.88;;
39324;SDS011;25037;49.488;9.900;2022-07-29T14:52:29;8.65;;;4.57;;
39324;SDS011;25037;49.488;9.900;2022-07-29T14:54:54;7.28;;;3.80;;
39324;SDS011;25037;49.488;9.900;2022-07-29T14:57:20;7.53;;;3.97;;
39324;SDS011;25037;49.488;9.900;2022-07-29T14:59:45;10.63;;;5.45;;
39324;SDS011;25037;49.488;9.900;2022-07-29T15:02:11;8.57;;;5.00;;
39324;SDS011;25037;49.488;9.900;2022-07-29T15:04:36;12.00;;;4.82;;
39324;SDS011;25037;49.488;9.900;2022-07-29T15:07:02;9.57;;;5.10;;
39324;SDS011;25037;49.488;9.900;2022-07-29T15:09:28;10.88;;;5.55;;
39324;SDS011;25037;49.488;9.900;2022-07-29T15:11:53;8.88;;;4.80;;
39324;SDS011;25037;49.488;9.900;2022-07-29T15:14:19;8.38;;;4.13;;
39324;SDS011;25037;49.488;9.900;2022-07-29T15:16:44;8.18;;;4.22;;
39324;SDS011;25037;49.488;9.900;2022-07-29T15:19:10;5.72;;;4.30;;
39324;SDS011;25037;49.488;9.900;2022-07-29T15:21:36;6.70;;;4.13;;
39324;SDS011;25037;49.488;9.900;2022-07-29T15:24:01;6.88;;;4.95;;
39324;SDS011;25037;49.488;9.900;2022-07-29T15:26:27;11.75;;;5.68;;
39324;SDS011;25037;49.488;9.900;2022-07-29T15:28:53;8.20;;;4.85;;
39324;SDS011;25037;49.488;9.900;2022-07-29T15:31:20;10.18;;;5.32;;
39324;SDS011;25037;49.488;9.900;2022-07-29T15:33:46;10.43;;;5.25;;
39324;SDS011;25037;49.488;9.900;2022-07-29T15:36:11;8.25;;;5.13;;
39324;SDS011;25037;49.488;9.900;2022-07-29T15:38:37;9.95;;;5.47;;
39324;SDS011;25037;49.488;9.900;2022-07-29T15:41:05;7.47;;;4.90;;